sensor_id;sensor_type;location;lat;lon;timestamp;P1;durP1;ratioP1;P2;durP2;ratioP2
75413;SDS011;64758;52.122;5.404;2024-03-02T00:01:15;3.50;;;0.50;;
75413;SDS011;64758;52.122;5.404;2024-03-02T00:03:42;2.97;;;0.70;;
75413;SDS011;64758;52.122;5.404;2024-03-02T00:06:09;1.88;;;0.52;;
75413;SDS011;64758;52.122;5.404;2024-03-02T00:08:36;1.52;;;0.50;;
75413;SDS011;64758;52.122;5.404;2024-03-02T00:11:02;3.65;;;0.60;;
75413;SDS011;64758;52.122;5.404;2024-03-02T00:13:32;2.13;;;0.30;;
75413;SDS011;64758;52.122;5.404;2024-03-02T00:16:00;2.60;;;0.40;;
75413;SDS011;64758;52.122;5.404;2024-03-02T00:18:27;3.30;;;0.40;;
75413;SDS011;64758;52.122;5.404;2024-03-02T00:20:59;1.45;;;0.50;;
75413;SDS011;64758;52.122;5.404;2024-03-02T00:23:27;1.35;;;0.40;;
75413;SDS011;64758;52.122;5.404;2024-03-02T00:25:57;2.25;;;0.47;;
75413;SDS011;64758;52.122;5.404;2024-03-02T00:28:36;1.70;;;0.50;;
75413;SDS011;64758;52.122;5.404;2024-03-02T00:31:09;1.83;;;0.40;;
75413;SDS011;64758;52.122;5.404;2024-03-02T00:33:41;1.20;;;0.30;;
75413;SDS011;64758;52.122;5.404;2024-03-02T00:36:10;2.33;;;0.40;;
75413;SDS011;64758;52.122;5.404;2024-03-02T00:39:12;0.93;;;0.47;;
75413;SDS011;64758;52.122;5.404;2024-03-02T00:41:34;0.93;;;0.40;;
75413;SDS011;64758;52.122;5.404;2024-03-02T00:44:02;1.63;;;0.35;;
75413;SDS011;64758;52.122;5.404;2024-03-02T00:46:34;1.35;;;0.40;;
75413;SDS011;64758;52.122;5.404;2024-03-02T00:49:01;3.50;;;0.60;;
75413;SDS011;64758;52.122;5.404;2024-03-02T00:51:37;1.60;;;0.20;;
75413;SDS011;64758;52.122;5.404;2024-03-02T00:54:05;1.00;;;0.20;;
75413;SDS011;64758;52.122;5.404;2024-03-02T00:56:34;0.68;;;0.30;;
75413;SDS011;64758;52.122;5.404;2024-03-02T00:59:01;0.60;;;0.20;;
75413;SDS011;64758;52.122;5.404;2024-03-02T01:01:28;1.85;;;0.20;;
75413;SDS011;64758;52.122;5.404;2024-03-02T01:03:55;0.75;;;0.20;;
75413;SDS011;64758;52.122;5.404;2024-03-02T01:06:21;1.50;;;0.10;;
75413;SDS011;64758;52.122;5.404;2024-03-02T01:08:51;2.83;;;0.35;;
75413;SDS011;64758;52.122;5.404;2024-03-02T01:11:19;0.22;;;0.10;;
75413;SDS011;64758;52.122;5.404;2024-03-02T01:13:49;0.35;;;0.13;;
75413;SDS011;64758;52.122;5.404;2024-03-02T01:16:15;0.22;;;0.17;;
75413;SDS011;64758;52.122;5.404;2024-03-02T01:18:42;0.60;;;0.20;;
75413;SDS011;64758;52.122;5.404;2024-03-02T01:21:10;0.55;;;0.10;;
75413;SDS011;64758;52.122;5.404;2024-03-02T01:23:36;0.47;;;0.10;;
75413;SDS011;64758;52.122;5.404;2024-03-02T01:26:03;0.40;;;0.13;;
75413;SDS011;64758;52.122;5.404;2024-03-02T01:28:30;0.50;;;0.10;;
75413;SDS011;64758;52.122;5.404;2024-03-02T01:30:57;0.30;;;0.10;;
75413;SDS011;64758;52.122;5.404;2024-03-02T01:33:23;0.38;;;0.20;;
75413;SDS011;64758;52.122;5.404;2024-03-02T01:35:50;1.90;;;0.20;;
75413;SDS011;64758;52.122;5.404;2024-03-02T01:38:16;0.98;;;0.20;;
75413;SDS011;64758;52.122;5.404;2024-03-02T01:40:43;0.80;;;0.15;;
75413;SDS011;64758;52.122;5.404;2024-03-02T01:43:14;0.73;;;0.27;;
75413;SDS011;64758;52.122;5.404;2024-03-02T01:45:41;0.40;;;0.10;;
75413;SDS011;64758;52.122;5.404;2024-03-02T01:48:07;1.10;;;0.20;;
75413;SDS011;64758;52.122;5.404;2024-03-02T01:50:34;0.77;;;0.10;;
75413;SDS011;64758;52.122;5.404;2024-03-02T01:53:01;0.30;;;0.20;;
75413;SDS011;64758;52.122;5.404;2024-03-02T01:55:31;0.53;;;0.20;;
75413;SDS011;64758;52.122;5.404;2024-03-02T01:57:59;0.30;;;0.10;;
75413;SDS011;64758;52.122;5.404;2024-03-02T02:00:26;0.30;;;0.10;;
75413;SDS011;64758;52.122;5.404;2024-03-02T02:02:53;0.40;;;0.10;;
75413;SDS011;64758;52.122;5.404;2024-03-02T02:05:20;0.85;;;0.20;;
75413;SDS011;64758;52.122;5.404;2024-03-02T02:07:47;0.93;;;0.13;;
75413;SDS011;64758;52.122;5.404;2024-03-02T02:10:14;0.25;;;0.10;;
75413;SDS011;64758;52.122;5.404;2024-03-02T02:12:41;0.98;;;0.20;;
75413;SDS011;64758;52.122;5.404;2024-03-02T02:17:54;0.50;;;0.20;;
75413;SDS011;64758;52.122;5.404;2024-03-02T02:20:22;0.63;;;0.10;;
75413;SDS011;64758;52.122;5.404;2024-03-02T02:22:56;0.28;;;0.10;;
75413;SDS011;64758;52.122;5.404;2024-03-02T02:25:30;0.30;;;0.10;;
75413;SDS011;64758;52.122;5.404;2024-03-02T02:27:57;0.82;;;0.10;;
75413;SDS011;64758;52.122;5.404;2024-03-02T02:30:28;0.22;;;0.10;;
75413;SDS011;64758;52.122;5.404;2024-03-02T02:32:56;0.68;;;0.20;;
75413;SDS011;64758;52.122;5.404;2024-03-02T02:35:24;0.73;;;0.20;;
75413;SDS011;64758;52.122;5.404;2024-03-02T02:37:52;0.47;;;0.20;;
75413;SDS011;64758;52.122;5.404;2024-03-02T02:40:20;0.47;;;0.15;;
75413;SDS011;64758;52.122;5.404;2024-03-02T02:42:47;0.40;;;0.20;;
75413;SDS011;64758;52.122;5.404;2024-03-02T02:45:14;0.80;;;0.17;;
75413;SDS011;64758;52.122;5.404;2024-03-02T02:47:42;1.05;;;0.17;;
75413;SDS011;64758;52.122;5.404;2024-03-02T02:50:09;0.25;;;0.10;;
75413;SDS011;64758;52.122;5.404;2024-03-02T02:52:38;0.10;;;0.10;;
75413;SDS011;64758;52.122;5.404;2024-03-02T02:55:07;0.75;;;0.30;;
75413;SDS011;64758;52.122;5.404;2024-03-02T02:57:35;0.28;;;0.13;;
75413;SDS011;64758;52.122;5.404;2024-03-02T03:00:22;0.22;;;0.13;;
75413;SDS011;64758;52.122;5.404;2024-03-02T03:02:49;0.35;;;0.20;;
75413;SDS011;64758;52.122;5.404;2024-03-02T03:05:17;0.35;;;0.10;;
75413;SDS011;64758;52.122;5.404;2024-03-02T03:07:44;1.48;;;0.20;;
75413;SDS011;64758;52.122;5.404;2024-03-02T03:10:11;0.47;;;0.15;;
75413;SDS011;64758;52.122;5.404;2024-03-02T03:12:39;0.45;;;0.10;;
75413;SDS011;64758;52.122;5.404;2024-03-02T03:15:08;0.25;;;0.10;;
75413;SDS011;64758;52.122;5.404;2024-03-02T03:17:36;0.93;;;0.20;;
75413;SDS011;64758;52.122;5.404;2024-03-02T03:20:04;0.38;;;0.10;;
75413;SDS011;64758;52.122;5.404;2024-03-02T03:22:31;1.85;;;0.20;;
75413;SDS011;64758;52.122;5.404;2024-03-02T03:24:58;0.95;;;0.30;;
75413;SDS011;64758;52.122;5.404;2024-03-02T03:27:26;0.50;;;0.20;;
75413;SDS011;64758;52.122;5.404;2024-03-02T03:29:52;0.20;;;0.10;;
75413;SDS011;64758;52.122;5.404;2024-03-02T03:32:20;0.73;;;0.20;;
75413;SDS011;64758;52.122;5.404;2024-03-02T03:34:47;0.60;;;0.17;;
75413;SDS011;64758;52.122;5.404;2024-03-02T03:37:15;0.40;;;0.10;;
75413;SDS011;64758;52.122;5.404;2024-03-02T03:39:41;0.75;;;0.20;;
75413;SDS011;64758;52.122;5.404;2024-03-02T03:42:08;0.30;;;0.10;;
75413;SDS011;64758;52.122;5.404;2024-03-02T03:44:34;1.70;;;0.20;;
75413;SDS011;64758;52.122;5.404;2024-03-02T03:47:01;0.43;;;0.20;;
75413;SDS011;64758;52.122;5.404;2024-03-02T03:49:29;0.60;;;0.10;;
75413;SDS011;64758;52.122;5.404;2024-03-02T03:51:55;0.25;;;0.10;;
75413;SDS011;64758;52.122;5.404;2024-03-02T03:54:22;1.63;;;0.30;;
75413;SDS011;64758;52.122;5.404;2024-03-02T03:56:48;0.20;;;0.10;;
75413;SDS011;64758;52.122;5.404;2024-03-02T03:59:15;0.63;;;0.13;;
75413;SDS011;64758;52.122;5.404;2024-03-02T04:01:41;0.40;;;0.10;;
75413;SDS011;64758;52.122;5.404;2024-03-02T04:04:08;1.70;;;0.20;;
75413;SDS011;64758;52.122;5.404;2024-03-02T04:06:35;0.40;;;0.10;;
75413;SDS011;64758;52.122;5.404;2024-03-02T04:09:02;0.20;;;0.10;;
75413;SDS011;64758;52.122;5.404;2024-03-02T04:11:30;1.00;;;0.10;;
75413;SDS011;64758;52.122;5.404;2024-03-02T04:13:56;0.40;;;0.15;;
75413;SDS011;64758;52.122;5.404;2024-03-02T04:16:24;0.40;;;0.10;;
75413;SDS011;64758;52.122;5.404;2024-03-02T04:18:51;0.88;;;0.20;;
75413;SDS011;64758;52.122;5.404;2024-03-02T04:21:17;0.30;;;0.20;;
75413;SDS011;64758;52.122;5.404;2024-03-02T04:23:44;0.10;;;0.10;;
75413;SDS011;64758;52.122;5.404;2024-03-02T04:26:10;0.40;;;0.20;;
75413;SDS011;64758;52.122;5.404;2024-03-02T04:28:37;0.40;;;0.13;;
75413;SDS011;64758;52.122;5.404;2024-03-02T04:31:03;0.40;;;0.20;;
75413;SDS011;64758;52.122;5.404;2024-03-02T04:33:30;1.27;;;0.17;;
75413;SDS011;64758;52.122;5.404;2024-03-02T04:35:56;0.38;;;0.20;;
75413;SDS011;64758;52.122;5.404;2024-03-02T04:38:24;0.22;;;0.10;;
75413;SDS011;64758;52.122;5.404;2024-03-02T04:40:50;0.43;;;0.10;;
75413;SDS011;64758;52.122;5.404;2024-03-02T04:43:17;1.20;;;0.10;;
75413;SDS011;64758;52.122;5.404;2024-03-02T04:45:45;0.38;;;0.30;;
75413;SDS011;64758;52.122;5.404;2024-03-02T04:48:11;0.30;;;0.10;;
75413;SDS011;64758;52.122;5.404;2024-03-02T04:50:38;0.30;;;0.15;;
75413;SDS011;64758;52.122;5.404;2024-03-02T04:53:04;0.20;;;0.10;;
75413;SDS011;64758;52.122;5.404;2024-03-02T04:55:31;0.30;;;0.10;;
75413;SDS011;64758;52.122;5.404;2024-03-02T04:58:00;0.52;;;0.10;;
75413;SDS011;64758;52.122;5.404;2024-03-02T05:00:27;1.98;;;0.20;;
75413;SDS011;64758;52.122;5.404;2024-03-02T05:02:53;0.40;;;0.13;;
75413;SDS011;64758;52.122;5.404;2024-03-02T05:05:20;0.95;;;0.10;;
75413;SDS011;64758;52.122;5.404;2024-03-02T05:07:46;0.95;;;0.10;;
75413;SDS011;64758;52.122;5.404;2024-03-02T05:10:13;0.80;;;0.20;;
75413;SDS011;64758;52.122;5.404;2024-03-02T05:12:41;1.00;;;0.43;;
75413;SDS011;64758;52.122;5.404;2024-03-02T05:15:11;0.45;;;0.20;;
75413;SDS011;64758;52.122;5.404;2024-03-02T05:17:39;0.30;;;0.20;;
75413;SDS011;64758;52.122;5.404;2024-03-02T05:20:07;0.20;;;0.10;;
75413;SDS011;64758;52.122;5.404;2024-03-02T05:22:34;0.55;;;0.20;;
75413;SDS011;64758;52.122;5.404;2024-03-02T05:25:02;0.30;;;0.10;;
75413;SDS011;64758;52.122;5.404;2024-03-02T05:27:30;1.10;;;0.20;;
75413;SDS011;64758;52.122;5.404;2024-03-02T05:30:00;1.08;;;0.10;;
75413;SDS011;64758;52.122;5.404;2024-03-02T05:32:27;1.05;;;0.10;;
75413;SDS011;64758;52.122;5.404;2024-03-02T05:34:54;1.08;;;0.40;;
75413;SDS011;64758;52.122;5.404;2024-03-02T05:37:21;1.58;;;0.57;;
75413;SDS011;64758;52.122;5.404;2024-03-02T05:39:48;0.25;;;0.10;;
75413;SDS011;64758;52.122;5.404;2024-03-02T05:42:14;0.32;;;0.20;;
75413;SDS011;64758;52.122;5.404;2024-03-02T05:44:43;0.20;;;0.10;;
75413;SDS011;64758;52.122;5.404;2024-03-02T05:47:09;0.15;;;0.10;;
75413;SDS011;64758;52.122;5.404;2024-03-02T05:49:36;1.52;;;0.10;;
75413;SDS011;64758;52.122;5.404;2024-03-02T05:52:03;0.73;;;0.10;;
75413;SDS011;64758;52.122;5.404;2024-03-02T05:54:29;0.57;;;0.10;;
75413;SDS011;64758;52.122;5.404;2024-03-02T05:56:56;1.38;;;0.30;;
75413;SDS011;64758;52.122;5.404;2024-03-02T05:59:23;1.17;;;0.10;;
75413;SDS011;64758;52.122;5.404;2024-03-02T06:01:49;1.63;;;0.10;;
75413;SDS011;64758;52.122;5.404;2024-03-02T06:04:21;0.50;;;0.10;;
75413;SDS011;64758;52.122;5.404;2024-03-02T06:06:47;0.80;;;0.10;;
75413;SDS011;64758;52.122;5.404;2024-03-02T06:09:16;1.23;;;0.17;;
75413;SDS011;64758;52.122;5.404;2024-03-02T06:11:42;2.05;;;0.20;;
75413;SDS011;64758;52.122;5.404;2024-03-02T06:14:09;0.60;;;0.20;;
75413;SDS011;64758;52.122;5.404;2024-03-02T06:16:35;1.30;;;0.15;;
75413;SDS011;64758;52.122;5.404;2024-03-02T06:19:02;0.15;;;0.10;;
75413;SDS011;64758;52.122;5.404;2024-03-02T06:21:31;1.08;;;0.20;;
75413;SDS011;64758;52.122;5.404;2024-03-02T06:23:57;1.45;;;0.20;;
75413;SDS011;64758;52.122;5.404;2024-03-02T06:26:24;0.30;;;0.10;;
75413;SDS011;64758;52.122;5.404;2024-03-02T06:28:51;1.95;;;0.20;;
75413;SDS011;64758;52.122;5.404;2024-03-02T06:31:18;2.40;;;0.15;;
75413;SDS011;64758;52.122;5.404;2024-03-02T06:33:45;0.40;;;0.10;;
75413;SDS011;64758;52.122;5.404;2024-03-02T06:36:12;1.38;;;0.30;;
75413;SDS011;64758;52.122;5.404;2024-03-02T06:38:41;0.73;;;0.20;;
75413;SDS011;64758;52.122;5.404;2024-03-02T06:41:08;1.92;;;0.20;;
75413;SDS011;64758;52.122;5.404;2024-03-02T06:43:35;0.98;;;0.30;;
75413;SDS011;64758;52.122;5.404;2024-03-02T06:46:02;0.50;;;0.30;;
75413;SDS011;64758;52.122;5.404;2024-03-02T06:48:29;0.30;;;0.10;;
75413;SDS011;64758;52.122;5.404;2024-03-02T06:50:56;1.27;;;0.20;;
75413;SDS011;64758;52.122;5.404;2024-03-02T06:53:24;3.00;;;0.20;;
75413;SDS011;64758;52.122;5.404;2024-03-02T06:55:51;1.75;;;0.30;;
75413;SDS011;64758;52.122;5.404;2024-03-02T06:58:18;0.98;;;0.15;;
75413;SDS011;64758;52.122;5.404;2024-03-02T07:00:44;3.53;;;0.20;;
75413;SDS011;64758;52.122;5.404;2024-03-02T07:03:11;1.90;;;0.20;;
75413;SDS011;64758;52.122;5.404;2024-03-02T07:05:38;2.13;;;0.30;;
75413;SDS011;64758;52.122;5.404;2024-03-02T07:08:05;3.03;;;0.20;;
75413;SDS011;64758;52.122;5.404;2024-03-02T07:10:32;0.30;;;0.13;;
75413;SDS011;64758;52.122;5.404;2024-03-02T07:12:58;3.10;;;0.28;;
75413;SDS011;64758;52.122;5.404;2024-03-02T07:15:26;1.35;;;0.10;;
75413;SDS011;64758;52.122;5.404;2024-03-02T07:18:11;3.15;;;0.20;;
75413;SDS011;64758;52.122;5.404;2024-03-02T07:20:37;1.23;;;0.30;;
75413;SDS011;64758;52.122;5.404;2024-03-02T07:23:05;1.77;;;0.20;;
75413;SDS011;64758;52.122;5.404;2024-03-02T07:25:32;1.15;;;0.20;;
75413;SDS011;64758;52.122;5.404;2024-03-02T07:28:02;0.90;;;0.20;;
75413;SDS011;64758;52.122;5.404;2024-03-02T07:30:29;0.55;;;0.20;;
75413;SDS011;64758;52.122;5.404;2024-03-02T07:32:59;1.52;;;0.45;;
75413;SDS011;64758;52.122;5.404;2024-03-02T07:35:26;0.73;;;0.20;;
75413;SDS011;64758;52.122;5.404;2024-03-02T07:37:58;1.38;;;0.30;;
75413;SDS011;64758;52.122;5.404;2024-03-02T07:40:24;0.70;;;0.20;;
75413;SDS011;64758;52.122;5.404;2024-03-02T07:42:51;1.15;;;0.20;;
75413;SDS011;64758;52.122;5.404;2024-03-02T07:45:18;1.65;;;0.30;;
75413;SDS011;64758;52.122;5.404;2024-03-02T07:47:45;0.93;;;0.20;;
75413;SDS011;64758;52.122;5.404;2024-03-02T07:50:12;0.95;;;0.20;;
75413;SDS011;64758;52.122;5.404;2024-03-02T07:52:39;1.20;;;0.10;;
75413;SDS011;64758;52.122;5.404;2024-03-02T07:55:05;0.95;;;0.10;;
75413;SDS011;64758;52.122;5.404;2024-03-02T07:57:32;1.05;;;0.20;;
75413;SDS011;64758;52.122;5.404;2024-03-02T07:59:59;0.77;;;0.30;;
75413;SDS011;64758;52.122;5.404;2024-03-02T08:02:25;0.52;;;0.20;;
75413;SDS011;64758;52.122;5.404;2024-03-02T08:04:52;0.43;;;0.17;;
75413;SDS011;64758;52.122;5.404;2024-03-02T08:07:18;1.60;;;0.50;;
75413;SDS011;64758;52.122;5.404;2024-03-02T08:09:45;2.65;;;0.28;;
75413;SDS011;64758;52.122;5.404;2024-03-02T08:12:12;1.00;;;0.20;;
75413;SDS011;64758;52.122;5.404;2024-03-02T08:14:38;1.40;;;0.20;;
75413;SDS011;64758;52.122;5.404;2024-03-02T08:17:05;0.60;;;0.17;;
75413;SDS011;64758;52.122;5.404;2024-03-02T08:19:36;0.52;;;0.20;;
75413;SDS011;64758;52.122;5.404;2024-03-02T08:22:03;1.52;;;0.20;;
75413;SDS011;64758;52.122;5.404;2024-03-02T08:24:30;0.73;;;0.20;;
75413;SDS011;64758;52.122;5.404;2024-03-02T08:26:57;1.50;;;0.20;;
75413;SDS011;64758;52.122;5.404;2024-03-02T08:29:25;0.90;;;0.20;;
75413;SDS011;64758;52.122;5.404;2024-03-02T08:31:51;1.15;;;0.20;;
75413;SDS011;64758;52.122;5.404;2024-03-02T08:34:18;1.98;;;0.20;;
75413;SDS011;64758;52.122;5.404;2024-03-02T08:36:45;1.05;;;0.30;;
75413;SDS011;64758;52.122;5.404;2024-03-02T08:39:13;1.40;;;0.20;;
75413;SDS011;64758;52.122;5.404;2024-03-02T08:41:42;1.05;;;0.20;;
75413;SDS011;64758;52.122;5.404;2024-03-02T08:44:10;0.28;;;0.10;;
75413;SDS011;64758;52.122;5.404;2024-03-02T08:46:37;0.82;;;0.10;;
75413;SDS011;64758;52.122;5.404;2024-03-02T08:49:03;1.85;;;0.30;;
75413;SDS011;64758;52.122;5.404;2024-03-02T08:51:30;2.15;;;0.30;;
75413;SDS011;64758;52.122;5.404;2024-03-02T08:53:58;3.70;;;0.30;;
75413;SDS011;64758;52.122;5.404;2024-03-02T08:56:25;1.27;;;0.20;;
75413;SDS011;64758;52.122;5.404;2024-03-02T08:58:52;1.15;;;0.10;;
75413;SDS011;64758;52.122;5.404;2024-03-02T09:01:19;1.55;;;0.20;;
75413;SDS011;64758;52.122;5.404;2024-03-02T09:03:46;1.27;;;0.20;;
75413;SDS011;64758;52.122;5.404;2024-03-02T09:06:13;2.97;;;0.30;;
75413;SDS011;64758;52.122;5.404;2024-03-02T09:08:40;2.40;;;0.17;;
75413;SDS011;64758;52.122;5.404;2024-03-02T09:11:06;1.52;;;0.28;;
75413;SDS011;64758;52.122;5.404;2024-03-02T09:13:33;3.60;;;0.30;;
75413;SDS011;64758;52.122;5.404;2024-03-02T09:16:00;3.05;;;0.30;;
75413;SDS011;64758;52.122;5.404;2024-03-02T09:18:27;3.00;;;0.30;;
75413;SDS011;64758;52.122;5.404;2024-03-02T09:20:53;1.85;;;0.22;;
75413;SDS011;64758;52.122;5.404;2024-03-02T09:23:20;1.48;;;0.30;;
75413;SDS011;64758;52.122;5.404;2024-03-02T09:25:47;3.50;;;0.40;;
75413;SDS011;64758;52.122;5.404;2024-03-02T09:28:15;1.50;;;0.20;;
75413;SDS011;64758;52.122;5.404;2024-03-02T09:30:41;4.60;;;0.40;;
75413;SDS011;64758;52.122;5.404;2024-03-02T09:33:08;2.60;;;0.20;;
75413;SDS011;64758;52.122;5.404;2024-03-02T09:35:37;6.88;;;0.28;;
75413;SDS011;64758;52.122;5.404;2024-03-02T09:38:04;4.30;;;0.20;;
75413;SDS011;64758;52.122;5.404;2024-03-02T09:40:31;2.58;;;0.38;;
75413;SDS011;64758;52.122;5.404;2024-03-02T09:42:58;1.63;;;0.20;;
75413;SDS011;64758;52.122;5.404;2024-03-02T09:45:25;2.75;;;0.30;;
75413;SDS011;64758;52.122;5.404;2024-03-02T09:47:53;1.63;;;0.30;;
75413;SDS011;64758;52.122;5.404;2024-03-02T09:50:19;2.00;;;0.52;;
75413;SDS011;64758;52.122;5.404;2024-03-02T09:52:49;0.60;;;0.20;;
75413;SDS011;64758;52.122;5.404;2024-03-02T09:55:16;2.37;;;0.20;;
75413;SDS011;64758;52.122;5.404;2024-03-02T09:57:45;2.15;;;0.30;;
75413;SDS011;64758;52.122;5.404;2024-03-02T10:00:12;1.90;;;0.40;;
75413;SDS011;64758;52.122;5.404;2024-03-02T10:02:41;4.25;;;0.30;;
75413;SDS011;64758;52.122;5.404;2024-03-02T10:05:08;3.58;;;0.22;;
75413;SDS011;64758;52.122;5.404;2024-03-02T10:07:35;2.40;;;0.40;;
75413;SDS011;64758;52.122;5.404;2024-03-02T10:10:15;2.03;;;0.50;;
75413;SDS011;64758;52.122;5.404;2024-03-02T10:12:42;1.58;;;0.43;;
75413;SDS011;64758;52.122;5.404;2024-03-02T10:15:09;2.58;;;0.57;;
75413;SDS011;64758;52.122;5.404;2024-03-02T10:17:36;1.73;;;0.20;;
75413;SDS011;64758;52.122;5.404;2024-03-02T10:20:22;1.20;;;0.30;;
75413;SDS011;64758;52.122;5.404;2024-03-02T10:22:52;2.05;;;0.82;;
75413;SDS011;64758;52.122;5.404;2024-03-02T10:25:28;0.98;;;0.28;;
75413;SDS011;64758;52.122;5.404;2024-03-02T10:28:16;3.13;;;0.40;;
75413;SDS011;64758;52.122;5.404;2024-03-02T10:30:42;1.05;;;0.30;;
75413;SDS011;64758;52.122;5.404;2024-03-02T10:33:09;2.53;;;0.40;;
75413;SDS011;64758;52.122;5.404;2024-03-02T10:35:36;3.65;;;0.30;;
75413;SDS011;64758;52.122;5.404;2024-03-02T10:38:05;2.80;;;0.35;;
75413;SDS011;64758;52.122;5.404;2024-03-02T10:40:32;1.05;;;0.50;;
75413;SDS011;64758;52.122;5.404;2024-03-02T10:43:00;1.55;;;0.30;;
75413;SDS011;64758;52.122;5.404;2024-03-02T10:45:31;2.20;;;0.30;;
75413;SDS011;64758;52.122;5.404;2024-03-02T10:47:58;0.90;;;0.20;;
75413;SDS011;64758;52.122;5.404;2024-03-02T10:50:25;6.07;;;0.30;;
75413;SDS011;64758;52.122;5.404;2024-03-02T10:52:52;0.98;;;0.20;;
75413;SDS011;64758;52.122;5.404;2024-03-02T10:55:19;1.83;;;0.30;;
75413;SDS011;64758;52.122;5.404;2024-03-02T10:57:50;1.57;;;0.30;;
75413;SDS011;64758;52.122;5.404;2024-03-02T11:00:18;1.75;;;0.52;;
75413;SDS011;64758;52.122;5.404;2024-03-02T11:02:51;1.48;;;0.20;;
75413;SDS011;64758;52.122;5.404;2024-03-02T11:05:28;4.45;;;0.30;;
75413;SDS011;64758;52.122;5.404;2024-03-02T11:08:00;1.40;;;0.20;;
75413;SDS011;64758;52.122;5.404;2024-03-02T11:10:35;1.80;;;0.20;;
75413;SDS011;64758;52.122;5.404;2024-03-02T11:13:11;0.50;;;0.20;;
75413;SDS011;64758;52.122;5.404;2024-03-02T11:15:43;3.92;;;0.20;;
75413;SDS011;64758;52.122;5.404;2024-03-02T11:18:10;2.00;;;0.30;;
75413;SDS011;64758;52.122;5.404;2024-03-02T11:20:38;4.53;;;0.38;;
75413;SDS011;64758;52.122;5.404;2024-03-02T11:23:07;1.60;;;0.30;;
75413;SDS011;64758;52.122;5.404;2024-03-02T11:25:34;3.65;;;0.30;;
75413;SDS011;64758;52.122;5.404;2024-03-02T11:28:02;2.90;;;0.28;;
75413;SDS011;64758;52.122;5.404;2024-03-02T11:33:02;1.33;;;0.20;;
75413;SDS011;64758;52.122;5.404;2024-03-02T11:35:38;1.60;;;0.23;;
75413;SDS011;64758;52.122;5.404;2024-03-02T11:38:14;1.75;;;0.30;;
75413;SDS011;64758;52.122;5.404;2024-03-02T11:40:41;2.15;;;0.30;;
75413;SDS011;64758;52.122;5.404;2024-03-02T11:43:07;1.02;;;0.20;;
75413;SDS011;64758;52.122;5.404;2024-03-02T11:45:35;2.60;;;0.30;;
75413;SDS011;64758;52.122;5.404;2024-03-02T11:48:06;0.53;;;0.20;;
75413;SDS011;64758;52.122;5.404;2024-03-02T11:53:18;1.50;;;0.30;;
75413;SDS011;64758;52.122;5.404;2024-03-02T11:55:46;2.47;;;0.30;;
75413;SDS011;64758;52.122;5.404;2024-03-02T11:58:13;1.15;;;0.30;;
75413;SDS011;64758;52.122;5.404;2024-03-02T12:00:40;2.37;;;0.20;;
75413;SDS011;64758;52.122;5.404;2024-03-02T12:03:08;1.60;;;0.30;;
75413;SDS011;64758;52.122;5.404;2024-03-02T12:05:38;0.57;;;0.20;;
75413;SDS011;64758;52.122;5.404;2024-03-02T12:08:05;3.28;;;0.30;;
75413;SDS011;64758;52.122;5.404;2024-03-02T12:10:33;1.10;;;0.25;;
75413;SDS011;64758;52.122;5.404;2024-03-02T12:13:06;4.17;;;0.20;;
75413;SDS011;64758;52.122;5.404;2024-03-02T12:15:34;1.85;;;0.35;;
75413;SDS011;64758;52.122;5.404;2024-03-02T12:18:05;1.95;;;0.32;;
75413;SDS011;64758;52.122;5.404;2024-03-02T12:20:33;3.80;;;0.30;;
75413;SDS011;64758;52.122;5.404;2024-03-02T12:23:01;2.20;;;0.30;;
75413;SDS011;64758;52.122;5.404;2024-03-02T12:25:31;1.90;;;0.30;;
75413;SDS011;64758;52.122;5.404;2024-03-02T12:27:59;3.00;;;0.20;;
75413;SDS011;64758;52.122;5.404;2024-03-02T12:30:29;1.48;;;0.20;;
75413;SDS011;64758;52.122;5.404;2024-03-02T12:32:56;2.17;;;0.20;;
75413;SDS011;64758;52.122;5.404;2024-03-02T12:35:24;1.88;;;0.30;;
75413;SDS011;64758;52.122;5.404;2024-03-02T12:37:52;3.70;;;0.30;;
75413;SDS011;64758;52.122;5.404;2024-03-02T12:40:20;2.22;;;0.20;;
75413;SDS011;64758;52.122;5.404;2024-03-02T12:42:49;2.30;;;0.40;;
75413;SDS011;64758;52.122;5.404;2024-03-02T12:45:17;2.45;;;0.30;;
75413;SDS011;64758;52.122;5.404;2024-03-02T12:47:51;2.70;;;0.28;;
75413;SDS011;64758;52.122;5.404;2024-03-02T12:50:19;0.90;;;0.30;;
75413;SDS011;64758;52.122;5.404;2024-03-02T12:52:52;1.27;;;0.40;;
75413;SDS011;64758;52.122;5.404;2024-03-02T12:55:20;2.22;;;0.25;;
75413;SDS011;64758;52.122;5.404;2024-03-02T12:57:49;1.67;;;0.30;;
75413;SDS011;64758;52.122;5.404;2024-03-02T13:00:18;2.47;;;0.30;;
75413;SDS011;64758;52.122;5.404;2024-03-02T13:02:45;1.37;;;0.53;;
75413;SDS011;64758;52.122;5.404;2024-03-02T13:05:13;2.20;;;0.40;;
75413;SDS011;64758;52.122;5.404;2024-03-02T13:07:40;2.47;;;0.40;;
75413;SDS011;64758;52.122;5.404;2024-03-02T13:10:07;3.30;;;0.30;;
75413;SDS011;64758;52.122;5.404;2024-03-02T13:12:35;3.63;;;0.40;;
75413;SDS011;64758;52.122;5.404;2024-03-02T13:15:02;4.20;;;0.47;;
75413;SDS011;64758;52.122;5.404;2024-03-02T13:17:30;4.93;;;0.43;;
75413;SDS011;64758;52.122;5.404;2024-03-02T13:20:03;2.47;;;0.60;;
75413;SDS011;64758;52.122;5.404;2024-03-02T13:22:34;2.38;;;0.30;;
75413;SDS011;64758;52.122;5.404;2024-03-02T13:25:01;1.38;;;0.40;;
75413;SDS011;64758;52.122;5.404;2024-03-02T13:27:33;1.40;;;0.40;;
75413;SDS011;64758;52.122;5.404;2024-03-02T13:30:00;2.50;;;0.43;;
75413;SDS011;64758;52.122;5.404;2024-03-02T13:32:31;2.05;;;0.30;;
75413;SDS011;64758;52.122;5.404;2024-03-02T13:34:59;2.17;;;0.50;;
75413;SDS011;64758;52.122;5.404;2024-03-02T13:37:26;4.97;;;0.50;;
75413;SDS011;64758;52.122;5.404;2024-03-02T13:39:53;1.83;;;0.30;;
75413;SDS011;64758;52.122;5.404;2024-03-02T13:42:20;1.83;;;0.40;;
75413;SDS011;64758;52.122;5.404;2024-03-02T13:44:46;1.33;;;0.30;;
75413;SDS011;64758;52.122;5.404;2024-03-02T13:47:16;2.15;;;0.50;;
75413;SDS011;64758;52.122;5.404;2024-03-02T13:49:43;1.67;;;0.50;;
75413;SDS011;64758;52.122;5.404;2024-03-02T13:52:13;1.73;;;0.40;;
75413;SDS011;64758;52.122;5.404;2024-03-02T13:54:41;1.50;;;0.40;;
75413;SDS011;64758;52.122;5.404;2024-03-02T13:57:09;4.25;;;0.50;;
75413;SDS011;64758;52.122;5.404;2024-03-02T13:59:37;4.20;;;0.40;;
75413;SDS011;64758;52.122;5.404;2024-03-02T14:02:05;3.33;;;0.50;;
75413;SDS011;64758;52.122;5.404;2024-03-02T14:04:33;3.10;;;0.60;;
75413;SDS011;64758;52.122;5.404;2024-03-02T14:07:00;2.05;;;0.70;;
75413;SDS011;64758;52.122;5.404;2024-03-02T14:09:27;4.85;;;0.68;;
75413;SDS011;64758;52.122;5.404;2024-03-02T14:11:55;4.25;;;0.40;;
75413;SDS011;64758;52.122;5.404;2024-03-02T14:14:23;4.18;;;0.60;;
75413;SDS011;64758;52.122;5.404;2024-03-02T14:16:50;3.53;;;0.60;;
75413;SDS011;64758;52.122;5.404;2024-03-02T14:19:17;5.90;;;0.40;;
75413;SDS011;64758;52.122;5.404;2024-03-02T14:21:44;1.30;;;0.40;;
75413;SDS011;64758;52.122;5.404;2024-03-02T14:24:11;1.73;;;0.50;;
75413;SDS011;64758;52.122;5.404;2024-03-02T14:26:38;1.98;;;0.30;;
75413;SDS011;64758;52.122;5.404;2024-03-02T14:29:05;1.00;;;0.50;;
75413;SDS011;64758;52.122;5.404;2024-03-02T14:31:31;1.08;;;0.40;;
75413;SDS011;64758;52.122;5.404;2024-03-02T14:33:58;3.00;;;0.40;;
75413;SDS011;64758;52.122;5.404;2024-03-02T14:36:26;2.45;;;0.50;;
75413;SDS011;64758;52.122;5.404;2024-03-02T14:38:54;2.83;;;0.57;;
75413;SDS011;64758;52.122;5.404;2024-03-02T14:41:22;2.80;;;0.57;;
75413;SDS011;64758;52.122;5.404;2024-03-02T14:43:51;1.73;;;0.40;;
75413;SDS011;64758;52.122;5.404;2024-03-02T14:46:18;1.58;;;0.35;;
75413;SDS011;64758;52.122;5.404;2024-03-02T14:48:46;1.15;;;0.32;;
75413;SDS011;64758;52.122;5.404;2024-03-02T14:51:13;3.80;;;0.30;;
75413;SDS011;64758;52.122;5.404;2024-03-02T14:53:40;0.97;;;0.30;;
75413;SDS011;64758;52.122;5.404;2024-03-02T14:56:07;3.45;;;0.43;;
75413;SDS011;64758;52.122;5.404;2024-03-02T14:58:34;1.75;;;0.38;;
75413;SDS011;64758;52.122;5.404;2024-03-02T15:01:03;1.92;;;0.40;;